Terminal Aerodrome Forecast
Issued by NWS

Home | Current Version | Previous Version | Graphics & Text | Print | Product List | Glossary On
Versions: 1 2 3 4 5 6 7 8 9 10 11 12 13 14 15 16 17 18 19 20 21 22 23 24 25
639
FTUS43 KABR 131739
TAFMBG
TAF
KMBG 131739Z 1318/1418 14016KT 6SM -SHSN OVC015
      TEMPO 1318/1321 2SM -SN OVC010
     FM132100 14017KT 3SM -SN OVC008
     FM140000 15013KT 1SM -SN OVC010
     FM140600 16009KT 3SM -SN OVC015
     FM140900 29006KT P6SM VCSH OVC010
     FM141200 31010KT P6SM BKN020
     FM141500 30009KT P6SM SCT035=

USA.gov is the U.S. government's official web portal to all federal, state and local government web resources and services.